sensor_id;sensor_type;location;lat;lon;timestamp;temperature;humidity
1686;DHT22;840;47.980;7.830;2022-12-10T04:11:19;2.10;99.90
1686;DHT22;840;47.980;7.830;2022-12-10T04:14:33;2.00;99.90
1686;DHT22;840;47.980;7.830;2022-12-10T04:17:23;2.00;99.90
1686;DHT22;840;47.980;7.830;2022-12-10T04:20:07;2.00;99.90
1686;DHT22;840;47.980;7.830;2022-12-10T04:23:06;1.90;99.90
1686;DHT22;840;47.980;7.830;2022-12-10T04:26:12;2.00;99.90
1686;DHT22;840;47.980;7.830;2022-12-10T04:29:08;2.00;99.90
1686;DHT22;840;47.980;7.830;2022-12-10T04:32:08;2.10;99.90
1686;DHT22;840;47.980;7.830;2022-12-10T04:35:02;2.00;99.90
1686;DHT22;840;47.980;7.830;2022-12-10T04:37:30;2.10;99.90
1686;DHT22;840;47.980;7.830;2022-12-10T04:40:01;2.20;99.90
1686;DHT22;840;47.980;7.830;2022-12-10T04:42:36;2.20;99.90
1686;DHT22;840;47.980;7.830;2022-12-10T04:45:18;2.20;99.90
1686;DHT22;840;47.980;7.830;2022-12-10T04:48:10;2.30;99.90
1686;DHT22;840;47.980;7.830;2022-12-10T04:54:15;2.50;99.90
1686;DHT22;840;47.980;7.830;2022-12-10T05:00:31;2.50;99.90
1686;DHT22;840;47.980;7.830;2022-12-10T05:03:12;2.50;99.90
1686;DHT22;840;47.980;7.830;2022-12-10T05:05:44;2.50;99.90
1686;DHT22;840;47.980;7.830;2022-12-10T05:08:28;2.60;99.90
1686;DHT22;840;47.980;7.830;2022-12-10T05:11:03;2.60;99.90
1686;DHT22;840;47.980;7.830;2022-12-10T05:14:23;2.60;99.90
1686;DHT22;840;47.980;7.830;2022-12-10T05:17:14;2.70;99.90
1686;DHT22;840;47.980;7.830;2022-12-10T05:20:22;2.70;99.90
1686;DHT22;840;47.980;7.830;2022-12-10T05:23:04;2.70;99.90
1686;DHT22;840;47.980;7.830;2022-12-10T05:25:57;2.70;99.90
1686;DHT22;840;47.980;7.830;2022-12-10T05:28:26;2.70;99.90
1686;DHT22;840;47.980;7.830;2022-12-10T05:30:57;2.70;99.90
1686;DHT22;840;47.980;7.830;2022-12-10T05:33:33;2.60;99.90
1686;DHT22;840;47.980;7.830;2022-12-10T05:36:04;2.60;99.90
1686;DHT22;840;47.980;7.830;2022-12-10T05:38:33;2.70;99.90
1686;DHT22;840;47.980;7.830;2022-12-10T05:41:03;2.60;99.90
1686;DHT22;840;47.980;7.830;2022-12-10T05:43:32;2.50;99.90
1686;DHT22;840;47.980;7.830;2022-12-10T05:46:11;2.50;99.90
1686;DHT22;840;47.980;7.830;2022-12-10T05:49:10;2.60;99.90
1686;DHT22;840;47.980;7.830;2022-12-10T05:51:46;2.60;99.90
1686;DHT22;840;47.980;7.830;2022-12-10T05:54:23;2.60;99.90
1686;DHT22;840;47.980;7.830;2022-12-10T05:56:54;2.50;99.90
1686;DHT22;840;47.980;7.830;2022-12-10T05:59:23;2.50;99.90
1686;DHT22;840;47.980;7.830;2022-12-10T06:01:51;2.40;99.90
1686;DHT22;840;47.980;7.830;2022-12-10T06:04:23;2.40;99.90
1686;DHT22;840;47.980;7.830;2022-12-10T06:06:52;2.50;99.90
1686;DHT22;840;47.980;7.830;2022-12-10T06:09:23;2.50;99.90
1686;DHT22;840;47.980;7.830;2022-12-10T06:11:52;2.50;99.90
1686;DHT22;840;47.980;7.830;2022-12-10T06:14:20;2.50;99.90
1686;DHT22;840;47.980;7.830;2022-12-10T06:16:50;2.60;99.90
1686;DHT22;840;47.980;7.830;2022-12-10T06:22:47;2.50;99.90
1686;DHT22;840;47.980;7.830;2022-12-10T06:25:15;2.50;99.90
1686;DHT22;840;47.980;7.830;2022-12-10T06:27:45;2.60;99.90
1686;DHT22;840;47.980;7.830;2022-12-10T06:30:16;2.60;99.90
1686;DHT22;840;47.980;7.830;2022-12-10T06:32:44;2.60;99.90
1686;DHT22;840;47.980;7.830;2022-12-10T06:35:11;2.60;99.90
1686;DHT22;840;47.980;7.830;2022-12-10T06:37:40;2.50;99.90
1686;DHT22;840;47.980;7.830;2022-12-10T06:40:11;2.50;99.90
1686;DHT22;840;47.980;7.830;2022-12-10T06:42:46;2.50;99.90
1686;DHT22;840;47.980;7.830;2022-12-10T06:45:14;2.50;99.90
1686;DHT22;840;47.980;7.830;2022-12-10T06:47:53;2.50;99.90
1686;DHT22;840;47.980;7.830;2022-12-10T06:50:24;2.60;99.90
1686;DHT22;840;47.980;7.830;2022-12-10T06:53:00;2.60;99.90
1686;DHT22;840;47.980;7.830;2022-12-10T06:55:29;2.50;99.90
1686;DHT22;840;47.980;7.830;2022-12-10T06:57:57;2.60;99.90
1686;DHT22;840;47.980;7.830;2022-12-10T07:00:24;2.60;99.90
1686;DHT22;840;47.980;7.830;2022-12-10T07:02:51;2.60;99.90
1686;DHT22;840;47.980;7.830;2022-12-10T07:05:18;2.60;99.90
1686;DHT22;840;47.980;7.830;2022-12-10T07:07:45;2.60;99.90
1686;DHT22;840;47.980;7.830;2022-12-10T07:10:12;2.60;99.90
1686;DHT22;840;47.980;7.830;2022-12-10T07:12:42;2.70;99.90
1686;DHT22;840;47.980;7.830;2022-12-10T07:15:11;2.70;99.90
1686;DHT22;840;47.980;7.830;2022-12-10T07:17:54;2.70;99.90
1686;DHT22;840;47.980;7.830;2022-12-10T07:20:32;2.70;99.90
1686;DHT22;840;47.980;7.830;2022-12-10T07:23:10;2.70;99.90
1686;DHT22;840;47.980;7.830;2022-12-10T07:25:39;2.70;99.90
1686;DHT22;840;47.980;7.830;2022-12-10T07:28:21;2.80;99.90
1686;DHT22;840;47.980;7.830;2022-12-10T07:30:50;2.70;99.90
1686;DHT22;840;47.980;7.830;2022-12-10T07:33:23;2.70;99.90
1686;DHT22;840;47.980;7.830;2022-12-10T07:35:52;2.80;99.90
1686;DHT22;840;47.980;7.830;2022-12-10T07:38:20;2.80;99.90
1686;DHT22;840;47.980;7.830;2022-12-10T07:40:49;2.80;99.90
1686;DHT22;840;47.980;7.830;2022-12-10T07:43:18;2.80;99.90
1686;DHT22;840;47.980;7.830;2022-12-10T07:45:45;2.80;99.90
1686;DHT22;840;47.980;7.830;2022-12-10T07:48:12;2.70;99.90
1686;DHT22;840;47.980;7.830;2022-12-10T07:50:42;2.80;99.90
1686;DHT22;840;47.980;7.830;2022-12-10T07:53:09;2.70;99.90
1686;DHT22;840;47.980;7.830;2022-12-10T07:55:35;2.80;99.90
1686;DHT22;840;47.980;7.830;2022-12-10T07:58:03;2.70;99.90
1686;DHT22;840;47.980;7.830;2022-12-10T08:00:32;2.80;99.90
1686;DHT22;840;47.980;7.830;2022-12-10T08:02:59;2.80;99.90
1686;DHT22;840;47.980;7.830;2022-12-10T08:05:27;2.80;99.90
1686;DHT22;840;47.980;7.830;2022-12-10T08:07:54;2.80;99.90
1686;DHT22;840;47.980;7.830;2022-12-10T08:10:21;2.70;99.90
1686;DHT22;840;47.980;7.830;2022-12-10T08:12:48;2.70;99.90
1686;DHT22;840;47.980;7.830;2022-12-10T08:15:15;2.70;99.90
1686;DHT22;840;47.980;7.830;2022-12-10T08:17:44;2.60;99.90
1686;DHT22;840;47.980;7.830;2022-12-10T08:20:11;2.60;99.90
1686;DHT22;840;47.980;7.830;2022-12-10T08:22:38;2.70;99.90
1686;DHT22;840;47.980;7.830;2022-12-10T08:25:06;2.70;99.90
1686;DHT22;840;47.980;7.830;2022-12-10T08:27:34;2.60;99.90
1686;DHT22;840;47.980;7.830;2022-12-10T08:30:00;2.60;99.90
1686;DHT22;840;47.980;7.830;2022-12-10T08:32:27;2.60;99.90
1686;DHT22;840;47.980;7.830;2022-12-10T08:34:56;2.60;99.90
1686;DHT22;840;47.980;7.830;2022-12-10T08:37:24;2.60;99.90
1686;DHT22;840;47.980;7.830;2022-12-10T08:39:51;2.60;99.90
1686;DHT22;840;47.980;7.830;2022-12-10T08:42:18;2.60;99.90
1686;DHT22;840;47.980;7.830;2022-12-10T08:44:45;2.70;99.90
1686;DHT22;840;47.980;7.830;2022-12-10T08:47:12;2.70;99.90
1686;DHT22;840;47.980;7.830;2022-12-10T08:49:39;2.60;99.90
1686;DHT22;840;47.980;7.830;2022-12-10T08:52:07;2.60;99.90
1686;DHT22;840;47.980;7.830;2022-12-10T08:54:34;2.70;99.90
1686;DHT22;840;47.980;7.830;2022-12-10T08:57:01;2.70;99.90
1686;DHT22;840;47.980;7.830;2022-12-10T08:59:28;2.70;99.90
1686;DHT22;840;47.980;7.830;2022-12-10T09:01:55;2.70;99.90
1686;DHT22;840;47.980;7.830;2022-12-10T09:04:22;2.70;99.90
1686;DHT22;840;47.980;7.830;2022-12-10T09:06:49;2.70;99.90
1686;DHT22;840;47.980;7.830;2022-12-10T09:09:19;2.80;99.90
1686;DHT22;840;47.980;7.830;2022-12-10T09:11:47;2.80;99.90
1686;DHT22;840;47.980;7.830;2022-12-10T09:14:14;2.80;99.90
1686;DHT22;840;47.980;7.830;2022-12-10T09:16:41;2.80;99.90
1686;DHT22;840;47.980;7.830;2022-12-10T09:19:09;2.80;99.90
1686;DHT22;840;47.980;7.830;2022-12-10T09:21:37;2.90;99.90
1686;DHT22;840;47.980;7.830;2022-12-10T09:24:08;2.80;99.90
1686;DHT22;840;47.980;7.830;2022-12-10T09:26:36;2.80;99.90
1686;DHT22;840;47.980;7.830;2022-12-10T09:29:03;2.80;99.90
1686;DHT22;840;47.980;7.830;2022-12-10T09:31:30;2.80;99.90
1686;DHT22;840;47.980;7.830;2022-12-10T09:33:59;2.80;99.90
1686;DHT22;840;47.980;7.830;2022-12-10T09:36:27;2.70;99.90
1686;DHT22;840;47.980;7.830;2022-12-10T09:38:54;2.80;99.90
1686;DHT22;840;47.980;7.830;2022-12-10T09:41:47;2.80;99.90
1686;DHT22;840;47.980;7.830;2022-12-10T09:44:29;2.80;99.90
1686;DHT22;840;47.980;7.830;2022-12-10T09:47:04;2.70;99.90
1686;DHT22;840;47.980;7.830;2022-12-10T09:49:42;2.70;99.90
1686;DHT22;840;47.980;7.830;2022-12-10T09:52:14;2.70;99.90
1686;DHT22;840;47.980;7.830;2022-12-10T09:54:45;2.70;99.90
1686;DHT22;840;47.980;7.830;2022-12-10T09:57:20;2.70;99.90
1686;DHT22;840;47.980;7.830;2022-12-10T09:59:50;2.70;99.90
1686;DHT22;840;47.980;7.830;2022-12-10T10:02:22;2.70;99.90
1686;DHT22;840;47.980;7.830;2022-12-10T10:04:52;2.70;99.90
1686;DHT22;840;47.980;7.830;2022-12-10T10:07:24;2.70;99.90
1686;DHT22;840;47.980;7.830;2022-12-10T10:09:55;2.70;99.90
1686;DHT22;840;47.980;7.830;2022-12-10T10:12:26;2.70;99.90
1686;DHT22;840;47.980;7.830;2022-12-10T10:14:54;2.70;99.90
1686;DHT22;840;47.980;7.830;2022-12-10T10:17:29;2.70;99.90
1686;DHT22;840;47.980;7.830;2022-12-10T10:19:58;2.70;99.90
1686;DHT22;840;47.980;7.830;2022-12-10T10:22:25;2.80;99.90
1686;DHT22;840;47.980;7.830;2022-12-10T10:24:52;2.70;99.90
1686;DHT22;840;47.980;7.830;2022-12-10T10:27:21;2.70;99.90
1686;DHT22;840;47.980;7.830;2022-12-10T10:29:52;2.70;99.90
1686;DHT22;840;47.980;7.830;2022-12-10T10:32:21;2.70;99.90
1686;DHT22;840;47.980;7.830;2022-12-10T10:34:53;2.70;99.90
1686;DHT22;840;47.980;7.830;2022-12-10T10:37:23;2.70;99.90
1686;DHT22;840;47.980;7.830;2022-12-10T10:39:52;2.70;99.90
1686;DHT22;840;47.980;7.830;2022-12-10T10:42:27;2.70;99.90
1686;DHT22;840;47.980;7.830;2022-12-10T10:44:57;2.60;99.90
1686;DHT22;840;47.980;7.830;2022-12-10T10:47:26;2.60;99.90
1686;DHT22;840;47.980;7.830;2022-12-10T10:49:53;2.60;99.90
1686;DHT22;840;47.980;7.830;2022-12-10T10:52:28;2.60;99.90
1686;DHT22;840;47.980;7.830;2022-12-10T10:54:55;2.60;99.90
1686;DHT22;840;47.980;7.830;2022-12-10T10:57:24;2.60;99.90
1686;DHT22;840;47.980;7.830;2022-12-10T11:00:00;2.60;99.90
1686;DHT22;840;47.980;7.830;2022-12-10T11:02:32;2.60;99.90
1686;DHT22;840;47.980;7.830;2022-12-10T11:05:05;2.50;99.90
1686;DHT22;840;47.980;7.830;2022-12-10T11:07:37;2.40;99.90
1686;DHT22;840;47.980;7.830;2022-12-10T11:10:19;2.40;99.90
1686;DHT22;840;47.980;7.830;2022-12-10T11:12:55;2.20;99.90
1686;DHT22;840;47.980;7.830;2022-12-10T11:15:36;2.10;99.90
1686;DHT22;840;47.980;7.830;2022-12-10T11:18:27;2.00;99.90
1686;DHT22;840;47.980;7.830;2022-12-10T11:21:28;1.90;99.90
1686;DHT22;840;47.980;7.830;2022-12-10T11:23:59;1.80;99.90
1686;DHT22;840;47.980;7.830;2022-12-10T11:26:57;1.90;99.90
1686;DHT22;840;47.980;7.830;2022-12-10T11:29:55;2.00;99.90
1686;DHT22;840;47.980;7.830;2022-12-10T11:36:02;2.10;99.90
1686;DHT22;840;47.980;7.830;2022-12-10T11:39:04;2.20;99.90
1686;DHT22;840;47.980;7.830;2022-12-10T11:41:45;2.20;99.90
1686;DHT22;840;47.980;7.830;2022-12-10T11:44:37;2.30;99.90
1686;DHT22;840;47.980;7.830;2022-12-10T11:50:43;2.30;99.90
1686;DHT22;840;47.980;7.830;2022-12-10T11:53:38;2.40;99.90
1686;DHT22;840;47.980;7.830;2022-12-10T11:56:30;2.30;99.90
1686;DHT22;840;47.980;7.830;2022-12-10T11:59:20;2.30;99.90
1686;DHT22;840;47.980;7.830;2022-12-10T12:02:15;2.40;99.90
1686;DHT22;840;47.980;7.830;2022-12-10T12:05:05;2.50;99.90
1686;DHT22;840;47.980;7.830;2022-12-10T12:07:42;2.30;99.90
1686;DHT22;840;47.980;7.830;2022-12-10T12:10:35;2.30;99.90
1686;DHT22;840;47.980;7.830;2022-12-10T12:13:12;2.30;99.90
1686;DHT22;840;47.980;7.830;2022-12-10T12:15:46;2.40;99.90
1686;DHT22;840;47.980;7.830;2022-12-10T12:18:23;2.30;99.90
1686;DHT22;840;47.980;7.830;2022-12-10T12:20:57;2.30;99.90
1686;DHT22;840;47.980;7.830;2022-12-10T12:23:28;2.40;99.90
1686;DHT22;840;47.980;7.830;2022-12-10T12:26:02;2.40;99.90
1686;DHT22;840;47.980;7.830;2022-12-10T12:28:34;2.40;99.90
1686;DHT22;840;47.980;7.830;2022-12-10T12:31:05;2.40;99.90
1686;DHT22;840;47.980;7.830;2022-12-10T12:33:41;2.40;99.90
1686;DHT22;840;47.980;7.830;2022-12-10T12:36:12;2.50;99.90
1686;DHT22;840;47.980;7.830;2022-12-10T12:38:48;2.40;99.90
1686;DHT22;840;47.980;7.830;2022-12-10T12:41:29;2.30;99.90
1686;DHT22;840;47.980;7.830;2022-12-10T12:44:02;2.30;99.90
1686;DHT22;840;47.980;7.830;2022-12-10T12:46:39;2.30;99.90
1686;DHT22;840;47.980;7.830;2022-12-10T12:49:22;2.30;99.90
1686;DHT22;840;47.980;7.830;2022-12-10T12:52:00;2.30;99.90
1686;DHT22;840;47.980;7.830;2022-12-10T12:54:36;2.20;99.90
1686;DHT22;840;47.980;7.830;2022-12-10T12:57:14;2.20;99.90
1686;DHT22;840;47.980;7.830;2022-12-10T12:59:53;2.20;99.90
1686;DHT22;840;47.980;7.830;2022-12-10T13:02:39;2.20;99.90
1686;DHT22;840;47.980;7.830;2022-12-10T13:05:14;2.30;99.90
1686;DHT22;840;47.980;7.830;2022-12-10T13:07:42;2.30;99.90
1686;DHT22;840;47.980;7.830;2022-12-10T13:10:25;2.40;99.90
1686;DHT22;840;47.980;7.830;2022-12-10T13:13:24;2.40;99.90
1686;DHT22;840;47.980;7.830;2022-12-10T13:16:36;2.40;99.90
1686;DHT22;840;47.980;7.830;2022-12-10T13:19:30;2.40;99.90
1686;DHT22;840;47.980;7.830;2022-12-10T13:22:00;2.50;99.90
1686;DHT22;840;47.980;7.830;2022-12-10T13:24:59;2.50;99.90
1686;DHT22;840;47.980;7.830;2022-12-10T13:27:30;2.50;99.90
1686;DHT22;840;47.980;7.830;2022-12-10T13:30:03;2.50;99.90
1686;DHT22;840;47.980;7.830;2022-12-10T13:32:46;2.50;99.90
1686;DHT22;840;47.980;7.830;2022-12-10T13:35:27;2.60;99.90
1686;DHT22;840;47.980;7.830;2022-12-10T13:37:57;2.60;99.90
1686;DHT22;840;47.980;7.830;2022-12-10T13:40:38;2.50;99.90
1686;DHT22;840;47.980;7.830;2022-12-10T13:43:25;2.50;99.90
1686;DHT22;840;47.980;7.830;2022-12-10T13:46:33;2.50;99.90
1686;DHT22;840;47.980;7.830;2022-12-10T13:49:02;2.50;99.90
1686;DHT22;840;47.980;7.830;2022-12-10T13:51:46;2.40;99.90
1686;DHT22;840;47.980;7.830;2022-12-10T13:54:42;2.40;99.90
1686;DHT22;840;47.980;7.830;2022-12-10T13:57:27;2.40;99.90
1686;DHT22;840;47.980;7.830;2022-12-10T14:00:15;2.50;99.90
1686;DHT22;840;47.980;7.830;2022-12-10T14:03:14;2.40;99.90
1686;DHT22;840;47.980;7.830;2022-12-10T14:06:06;2.40;99.90
1686;DHT22;840;47.980;7.830;2022-12-10T14:08:41;2.30;99.90
1686;DHT22;840;47.980;7.830;2022-12-10T14:11:20;2.30;99.90
1686;DHT22;840;47.980;7.830;2022-12-10T14:13:52;2.20;99.90
1686;DHT22;840;47.980;7.830;2022-12-10T14:16:22;2.20;99.90
1686;DHT22;840;47.980;7.830;2022-12-10T14:19:09;2.20;99.90
1686;DHT22;840;47.980;7.830;2022-12-10T14:29:32;2.00;99.90
1686;DHT22;840;47.980;7.830;2022-12-10T14:32:25;2.00;99.90
1686;DHT22;840;47.980;7.830;2022-12-10T14:35:52;1.90;99.90
1686;DHT22;840;47.980;7.830;2022-12-10T14:38:20;2.00;99.90
1686;DHT22;840;47.980;7.830;2022-12-10T14:40:49;1.90;99.90
1686;DHT22;840;47.980;7.830;2022-12-10T14:43:20;1.90;99.90
1686;DHT22;840;47.980;7.830;2022-12-10T14:45:50;1.90;99.90
1686;DHT22;840;47.980;7.830;2022-12-10T14:48:19;1.90;99.90
1686;DHT22;840;47.980;7.830;2022-12-10T14:50:48;1.80;99.90
1686;DHT22;840;47.980;7.830;2022-12-10T14:53:17;1.80;99.90
1686;DHT22;840;47.980;7.830;2022-12-10T14:55:46;1.90;99.90
1686;DHT22;840;47.980;7.830;2022-12-10T14:58:17;2.00;99.90
1686;DHT22;840;47.980;7.830;2022-12-10T15:00:46;1.90;99.90
1686;DHT22;840;47.980;7.830;2022-12-10T15:03:27;2.00;99.90
1686;DHT22;840;47.980;7.830;2022-12-10T15:05:56;2.00;99.90
1686;DHT22;840;47.980;7.830;2022-12-10T15:08:26;2.10;99.90
1686;DHT22;840;47.980;7.830;2022-12-10T15:10:56;2.10;99.90
1686;DHT22;840;47.980;7.830;2022-12-10T15:13:29;2.20;99.90
1686;DHT22;840;47.980;7.830;2022-12-10T15:15:58;2.10;99.90
1686;DHT22;840;47.980;7.830;2022-12-10T15:18:28;2.10;99.90
1686;DHT22;840;47.980;7.830;2022-12-10T15:21:09;2.10;99.90
1686;DHT22;840;47.980;7.830;2022-12-10T15:23:40;2.10;99.90
1686;DHT22;840;47.980;7.830;2022-12-10T15:26:15;2.10;99.90
1686;DHT22;840;47.980;7.830;2022-12-10T15:28:47;2.10;99.90
1686;DHT22;840;47.980;7.830;2022-12-10T15:31:21;2.10;99.90
1686;DHT22;840;47.980;7.830;2022-12-10T15:33:50;2.10;99.90
1686;DHT22;840;47.980;7.830;2022-12-10T15:36:28;2.10;99.90
1686;DHT22;840;47.980;7.830;2022-12-10T15:39:02;2.00;99.90
1686;DHT22;840;47.980;7.830;2022-12-10T15:41:42;2.00;99.90
1686;DHT22;840;47.980;7.830;2022-12-10T15:44:26;2.00;99.90
1686;DHT22;840;47.980;7.830;2022-12-10T15:47:01;1.90;99.90
1686;DHT22;840;47.980;7.830;2022-12-10T15:49:30;1.70;99.90
1686;DHT22;840;47.980;7.830;2022-12-10T15:51:59;1.80;99.90
1686;DHT22;840;47.980;7.830;2022-12-10T15:54:28;1.80;99.90
1686;DHT22;840;47.980;7.830;2022-12-10T15:56:57;1.80;99.90
1686;DHT22;840;47.980;7.830;2022-12-10T15:59:25;1.80;99.90
1686;DHT22;840;47.980;7.830;2022-12-10T16:01:53;1.80;99.90
1686;DHT22;840;47.980;7.830;2022-12-10T16:04:22;1.70;99.90
1686;DHT22;840;47.980;7.830;2022-12-10T16:06:49;1.80;99.90
1686;DHT22;840;47.980;7.830;2022-12-10T16:09:17;1.70;99.90
1686;DHT22;840;47.980;7.830;2022-12-10T16:11:44;1.80;99.90
1686;DHT22;840;47.980;7.830;2022-12-10T16:14:13;1.70;99.90
1686;DHT22;840;47.980;7.830;2022-12-10T16:16:41;1.80;99.90
1686;DHT22;840;47.980;7.830;2022-12-10T16:19:10;1.80;99.90
1686;DHT22;840;47.980;7.830;2022-12-10T16:21:39;1.80;99.90
1686;DHT22;840;47.980;7.830;2022-12-10T16:24:11;1.80;99.90
1686;DHT22;840;47.980;7.830;2022-12-10T16:26:40;1.80;99.90
1686;DHT22;840;47.980;7.830;2022-12-10T16:29:10;1.90;99.90
1686;DHT22;840;47.980;7.830;2022-12-10T16:31:37;1.80;99.90
1686;DHT22;840;47.980;7.830;2022-12-10T16:34:05;1.90;99.90
1686;DHT22;840;47.980;7.830;2022-12-10T16:36:33;1.90;99.90
1686;DHT22;840;47.980;7.830;2022-12-10T16:39:01;1.90;99.90
1686;DHT22;840;47.980;7.830;2022-12-10T16:41:31;1.90;99.90
1686;DHT22;840;47.980;7.830;2022-12-10T16:43:59;2.00;99.90
1686;DHT22;840;47.980;7.830;2022-12-10T16:46:26;2.10;99.90
1686;DHT22;840;47.980;7.830;2022-12-10T16:48:53;2.10;99.90
1686;DHT22;840;47.980;7.830;2022-12-10T16:51:22;2.10;99.90
1686;DHT22;840;47.980;7.830;2022-12-10T16:53:49;2.20;99.90
1686;DHT22;840;47.980;7.830;2022-12-10T16:56:17;2.10;99.90
1686;DHT22;840;47.980;7.830;2022-12-10T16:58:44;2.20;99.90
1686;DHT22;840;47.980;7.830;2022-12-10T17:01:17;2.10;99.90
1686;DHT22;840;47.980;7.830;2022-12-10T17:03:45;2.10;99.90
1686;DHT22;840;47.980;7.830;2022-12-10T17:06:12;2.10;99.90
1686;DHT22;840;47.980;7.830;2022-12-10T17:08:39;2.10;99.90
1686;DHT22;840;47.980;7.830;2022-12-10T17:11:14;2.10;99.90
1686;DHT22;840;47.980;7.830;2022-12-10T17:13:59;2.10;99.90
1686;DHT22;840;47.980;7.830;2022-12-10T17:16:29;2.10;99.90
1686;DHT22;840;47.980;7.830;2022-12-10T17:18:58;2.10;99.90
1686;DHT22;840;47.980;7.830;2022-12-10T17:21:25;2.20;99.90
1686;DHT22;840;47.980;7.830;2022-12-10T17:23:52;2.20;99.90
1686;DHT22;840;47.980;7.830;2022-12-10T17:26:25;2.20;99.90
1686;DHT22;840;47.980;7.830;2022-12-10T17:28:54;2.30;99.90
1686;DHT22;840;47.980;7.830;2022-12-10T17:31:22;2.40;99.90
1686;DHT22;840;47.980;7.830;2022-12-10T17:33:51;2.30;99.90
1686;DHT22;840;47.980;7.830;2022-12-10T17:36:18;2.40;99.90
1686;DHT22;840;47.980;7.830;2022-12-10T17:38:45;2.40;99.90
1686;DHT22;840;47.980;7.830;2022-12-10T17:41:12;2.40;99.90
1686;DHT22;840;47.980;7.830;2022-12-10T17:43:41;2.40;99.90
1686;DHT22;840;47.980;7.830;2022-12-10T17:46:09;2.40;99.90
1686;DHT22;840;47.980;7.830;2022-12-10T17:48:37;2.40;99.90
1686;DHT22;840;47.980;7.830;2022-12-10T17:51:06;2.40;99.90
1686;DHT22;840;47.980;7.830;2022-12-10T17:53:34;2.40;99.90
1686;DHT22;840;47.980;7.830;2022-12-10T17:56:00;2.40;99.90
1686;DHT22;840;47.980;7.830;2022-12-10T17:58:27;2.40;99.90
1686;DHT22;840;47.980;7.830;2022-12-10T18:00:56;2.40;99.90
1686;DHT22;840;47.980;7.830;2022-12-10T18:03:23;2.40;99.90
1686;DHT22;840;47.980;7.830;2022-12-10T18:05:51;2.30;99.90
1686;DHT22;840;47.980;7.830;2022-12-10T18:08:20;2.30;99.90
1686;DHT22;840;47.980;7.830;2022-12-10T18:10:49;2.30;99.90
1686;DHT22;840;47.980;7.830;2022-12-10T18:13:16;2.30;99.90
1686;DHT22;840;47.980;7.830;2022-12-10T18:15:49;2.40;99.90
1686;DHT22;840;47.980;7.830;2022-12-10T18:18:29;2.20;99.90
1686;DHT22;840;47.980;7.830;2022-12-10T18:20:56;2.30;99.90
1686;DHT22;840;47.980;7.830;2022-12-10T18:23:25;2.20;99.90
1686;DHT22;840;47.980;7.830;2022-12-10T18:25:52;2.20;99.90
1686;DHT22;840;47.980;7.830;2022-12-10T18:28:42;2.20;99.90
1686;DHT22;840;47.980;7.830;2022-12-10T18:31:13;2.20;99.90
1686;DHT22;840;47.980;7.830;2022-12-10T18:33:43;2.10;99.90
1686;DHT22;840;47.980;7.830;2022-12-10T18:36:13;2.00;99.90
1686;DHT22;840;47.980;7.830;2022-12-10T18:38:44;2.00;99.90
1686;DHT22;840;47.980;7.830;2022-12-10T18:41:12;2.00;99.90
1686;DHT22;840;47.980;7.830;2022-12-10T18:43:39;1.90;99.90
1686;DHT22;840;47.980;7.830;2022-12-10T18:46:08;1.90;99.90
1686;DHT22;840;47.980;7.830;2022-12-10T18:48:37;1.90;99.90
1686;DHT22;840;47.980;7.830;2022-12-10T18:51:04;1.90;99.90
1686;DHT22;840;47.980;7.830;2022-12-10T18:53:30;1.90;99.90
1686;DHT22;840;47.980;7.830;2022-12-10T18:55:59;2.00;99.90
1686;DHT22;840;47.980;7.830;2022-12-10T18:58:26;2.00;99.90
1686;DHT22;840;47.980;7.830;2022-12-10T19:00:53;2.00;99.90
1686;DHT22;840;47.980;7.830;2022-12-10T19:03:19;2.00;99.90
1686;DHT22;840;47.980;7.830;2022-12-10T19:05:46;2.00;99.90
1686;DHT22;840;47.980;7.830;2022-12-10T19:08:13;2.00;99.90
1686;DHT22;840;47.980;7.830;2022-12-10T19:10:40;2.10;99.90
1686;DHT22;840;47.980;7.830;2022-12-10T19:13:09;2.10;99.90
1686;DHT22;840;47.980;7.830;2022-12-10T19:15:35;2.10;99.90
1686;DHT22;840;47.980;7.830;2022-12-10T19:18:03;2.10;99.90
1686;DHT22;840;47.980;7.830;2022-12-10T19:20:30;2.10;99.90
1686;DHT22;840;47.980;7.830;2022-12-10T19:22:57;2.20;99.90
1686;DHT22;840;47.980;7.830;2022-12-10T19:25:24;2.20;99.90
1686;DHT22;840;47.980;7.830;2022-12-10T19:27:51;2.20;99.90
1686;DHT22;840;47.980;7.830;2022-12-10T19:30:22;2.20;99.90
1686;DHT22;840;47.980;7.830;2022-12-10T19:32:49;2.20;99.90
1686;DHT22;840;47.980;7.830;2022-12-10T19:35:18;2.20;99.90
1686;DHT22;840;47.980;7.830;2022-12-10T19:37:45;2.20;99.90
1686;DHT22;840;47.980;7.830;2022-12-10T19:40:18;2.20;99.90
1686;DHT22;840;47.980;7.830;2022-12-10T19:42:46;2.10;99.90
1686;DHT22;840;47.980;7.830;2022-12-10T19:45:13;2.10;99.90
1686;DHT22;840;47.980;7.830;2022-12-10T19:47:43;2.10;99.90
1686;DHT22;840;47.980;7.830;2022-12-10T19:50:14;2.10;99.90
1686;DHT22;840;47.980;7.830;2022-12-10T19:52:43;2.00;99.90
1686;DHT22;840;47.980;7.830;2022-12-10T19:55:10;2.00;99.90
1686;DHT22;840;47.980;7.830;2022-12-10T19:57:37;1.90;99.90
1686;DHT22;840;47.980;7.830;2022-12-10T20:00:06;1.90;99.90
1686;DHT22;840;47.980;7.830;2022-12-10T20:02:35;1.80;99.90
1686;DHT22;840;47.980;7.830;2022-12-10T20:05:05;1.80;99.90
1686;DHT22;840;47.980;7.830;2022-12-10T20:07:33;1.70;99.90
1686;DHT22;840;47.980;7.830;2022-12-10T20:10:23;1.70;99.90
1686;DHT22;840;47.980;7.830;2022-12-10T20:13:12;1.60;99.90
1686;DHT22;840;47.980;7.830;2022-12-10T20:15:43;1.60;99.90
1686;DHT22;840;47.980;7.830;2022-12-10T20:18:11;1.60;99.90
1686;DHT22;840;47.980;7.830;2022-12-10T20:20:40;1.60;99.90
1686;DHT22;840;47.980;7.830;2022-12-10T20:23:07;1.50;99.90
1686;DHT22;840;47.980;7.830;2022-12-10T20:25:34;1.50;99.90
1686;DHT22;840;47.980;7.830;2022-12-10T20:28:02;1.40;99.90
1686;DHT22;840;47.980;7.830;2022-12-10T20:30:29;1.40;99.90
1686;DHT22;840;47.980;7.830;2022-12-10T20:32:56;1.40;99.90
1686;DHT22;840;47.980;7.830;2022-12-10T20:35:23;1.40;99.90
1686;DHT22;840;47.980;7.830;2022-12-10T20:37:52;1.40;99.90
1686;DHT22;840;47.980;7.830;2022-12-10T20:40:22;1.40;99.90
1686;DHT22;840;47.980;7.830;2022-12-10T20:42:49;1.40;99.90
1686;DHT22;840;47.980;7.830;2022-12-10T20:45:17;1.50;99.90
1686;DHT22;840;47.980;7.830;2022-12-10T20:47:44;1.50;99.90
1686;DHT22;840;47.980;7.830;2022-12-10T20:50:14;1.50;99.90
1686;DHT22;840;47.980;7.830;2022-12-10T20:52:43;1.50;99.90
1686;DHT22;840;47.980;7.830;2022-12-10T20:55:12;1.60;99.90
1686;DHT22;840;47.980;7.830;2022-12-10T20:57:39;1.60;99.90
1686;DHT22;840;47.980;7.830;2022-12-10T21:00:11;1.60;99.90
1686;DHT22;840;47.980;7.830;2022-12-10T21:02:40;1.50;99.90
1686;DHT22;840;47.980;7.830;2022-12-10T21:05:07;1.60;99.90
1686;DHT22;840;47.980;7.830;2022-12-10T21:07:35;1.60;99.90
1686;DHT22;840;47.980;7.830;2022-12-10T21:10:06;1.50;99.90
1686;DHT22;840;47.980;7.830;2022-12-10T21:12:55;1.50;99.90
1686;DHT22;840;47.980;7.830;2022-12-10T21:15:22;1.50;99.90
1686;DHT22;840;47.980;7.830;2022-12-10T21:17:50;1.50;99.90
1686;DHT22;840;47.980;7.830;2022-12-10T21:20:33;1.50;99.90
1686;DHT22;840;47.980;7.830;2022-12-10T21:23:02;1.50;99.90
1686;DHT22;840;47.980;7.830;2022-12-10T21:25:29;1.50;99.90
1686;DHT22;840;47.980;7.830;2022-12-10T21:27:59;1.50;99.90
1686;DHT22;840;47.980;7.830;2022-12-10T21:30:26;1.50;99.90
1686;DHT22;840;47.980;7.830;2022-12-10T21:32:54;1.50;99.90
1686;DHT22;840;47.980;7.830;2022-12-10T21:35:21;1.50;99.90
1686;DHT22;840;47.980;7.830;2022-12-10T21:37:48;1.40;99.90
1686;DHT22;840;47.980;7.830;2022-12-10T21:40:15;1.40;99.90
1686;DHT22;840;47.980;7.830;2022-12-10T21:42:44;1.40;99.90
1686;DHT22;840;47.980;7.830;2022-12-10T21:45:30;1.30;99.90
1686;DHT22;840;47.980;7.830;2022-12-10T21:47:58;1.30;99.90
1686;DHT22;840;47.980;7.830;2022-12-10T21:50:27;1.30;99.90